Time;durP1;ratioP1;P1;durP2;ratioP2;P2;SDS_P1;SDS_P2;PMS_P1;PMS_P2;Temp;Humidity;BMP_temperature;BMP_pressure;BME280_temperature;BME280_humidity;BME280_pressure;Samples;Min_cycle;Max_cycle;Signal;HPM_P1;HPM_P2
2021/05/28 00:00:54;;;;;;;8.43;4.50;;;;;;;9.34;90.78;96694.16;5077224;28;20027;-82
2021/05/28 00:03:20;;;;;;;7.53;4.97;;;;;;;9.25;91.57;96690.56;5091450;28;20032;-81
2021/05/28 00:05:46;;;;;;;6.77;4.17;;;;;;;9.27;91.32;96690.44;5065602;28;20346;-81
2021/05/28 00:08:12;;;;;;;6.00;4.17;;;;;;;9.29;91.60;96689.31;5055745;28;20032;-82
2021/05/28 00:10:37;;;;;;;7.50;4.57;;;;;;;9.29;91.05;96696.34;5056387;28;20040;-81
2021/05/28 00:13:03;;;;;;;8.30;4.93;;;;;;;9.33;91.47;96692.50;5054001;28;20511;-81
2021/05/28 00:15:29;;;;;;;7.00;4.80;;;;;;;9.32;91.31;96696.94;5061261;28;20120;-81
2021/05/28 00:17:54;;;;;;;6.93;4.47;;;;;;;9.33;91.51;96705.63;5053904;28;20398;-82
2021/05/28 00:20:20;;;;;;;6.27;5.00;;;;;;;9.35;91.63;96698.41;5065850;28;20484;-81
2021/05/28 00:22:46;;;;;;;10.13;4.27;;;;;;;9.33;91.44;96700.38;5072577;28;20127;-81
2021/05/28 00:25:12;;;;;;;7.00;4.97;;;;;;;9.32;91.81;96696.94;5054768;28;20032;-82
2021/05/28 00:27:39;;;;;;;8.07;5.53;;;;;;;9.36;91.05;96698.28;5052429;28;20028;-82
2021/05/28 00:30:07;;;;;;;8.57;5.33;;;;;;;9.38;91.03;96696.34;5065021;28;20066;-81
2021/05/28 00:32:33;;;;;;;7.87;5.03;;;;;;;9.42;91.25;96696.88;5053843;28;20085;-81
2021/05/28 00:34:59;;;;;;;9.57;5.80;;;;;;;9.36;90.86;96702.72;5079642;28;20113;-81
2021/05/28 00:37:25;;;;;;;9.17;5.10;;;;;;;9.29;92.13;96698.97;5062188;28;20028;-81
2021/05/28 00:39:51;;;;;;;7.93;4.70;;;;;;;9.36;91.82;96697.47;5084208;28;20059;-81
2021/05/28 00:42:17;;;;;;;8.80;5.20;;;;;;;9.35;91.66;96703.66;5058903;28;20107;-82
2021/05/28 00:44:43;;;;;;;9.57;5.03;;;;;;;9.27;91.86;96699.13;5070871;28;20120;-81
2021/05/28 00:47:09;;;;;;;7.37;5.83;;;;;;;9.24;92.01;96698.56;5072491;28;20036;-81
2021/05/28 00:49:35;;;;;;;8.70;5.13;;;;;;;9.26;91.71;96697.47;5065810;28;20494;-82
2021/05/28 00:52:02;;;;;;;8.97;5.30;;;;;;;9.21;92.40;96699.69;5059074;28;20120;-81
2021/05/28 00:54:28;;;;;;;7.00;4.90;;;;;;;9.19;92.89;96705.09;5079659;28;20035;-82
2021/05/28 00:56:54;;;;;;;8.83;5.33;;;;;;;9.24;93.03;96703.81;5057646;28;20047;-81
2021/05/28 00:59:20;;;;;;;8.73;5.30;;;;;;;9.22;93.15;96703.94;5054283;28;20036;-82
2021/05/28 01:01:47;;;;;;;8.63;5.37;;;;;;;9.26;93.07;96702.72;5053840;28;20496;-82
2021/05/28 01:04:13;;;;;;;9.20;6.00;;;;;;;9.25;93.79;96708.91;5071813;28;20504;-81
2021/05/28 01:06:38;;;;;;;9.00;5.93;;;;;;;9.20;93.44;96709.34;5061701;28;20021;-82
2021/05/28 01:09:05;;;;;;;9.33;5.87;;;;;;;9.21;93.15;96710.19;5069281;28;20030;-81
2021/05/28 01:11:31;;;;;;;8.10;5.90;;;;;;;9.23;93.60;96702.19;5055813;28;21005;-82
2021/05/28 01:13:57;;;;;;;7.87;5.73;;;;;;;9.29;93.63;96709.47;5081575;28;20106;-81
2021/05/28 01:16:23;;;;;;;8.17;6.70;;;;;;;9.30;93.34;96700.66;5056386;28;20221;-82
2021/05/28 01:18:49;;;;;;;8.20;6.13;;;;;;;9.26;93.34;96707.16;5052454;28;20123;-82
2021/05/28 01:21:15;;;;;;;8.87;5.70;;;;;;;9.30;93.27;96711.16;5064012;28;20119;-82
2021/05/28 01:23:41;;;;;;;7.63;5.80;;;;;;;9.16;93.21;96707.97;5070164;28;20481;-81
2021/05/28 01:26:07;;;;;;;7.23;5.70;;;;;;;9.12;94.01;96703.97;5059790;28;20081;-81
2021/05/28 01:28:33;;;;;;;8.00;5.63;;;;;;;9.08;94.21;96707.81;5058470;28;20040;-82
2021/05/28 01:30:59;;;;;;;9.40;5.80;;;;;;;9.17;94.68;96711.44;5075838;28;20602;-82
2021/05/28 01:33:26;;;;;;;10.10;5.37;;;;;;;9.14;94.41;96702.03;5057562;28;20036;-82
2021/05/28 01:35:55;;;;;;;7.13;5.30;;;;;;;9.18;94.00;96705.19;5061460;28;20082;-82
2021/05/28 01:38:21;;;;;;;9.57;5.97;;;;;;;9.04;93.73;96709.06;5053733;28;20093;-81
2021/05/28 01:40:47;;;;;;;12.37;5.77;;;;;;;9.09;94.04;96706.88;5067062;28;20362;-81
2021/05/28 01:43:13;;;;;;;7.50;5.77;;;;;;;9.09;93.88;96711.31;5080276;28;20068;-81
2021/05/28 01:45:39;;;;;;;8.27;5.77;;;;;;;9.06;94.13;96701.09;5068000;28;20016;-81
2021/05/28 01:48:06;;;;;;;10.10;6.47;;;;;;;9.13;94.21;96696.94;5050785;28;20119;-82
2021/05/28 01:50:43;;;;;;;8.93;5.73;;;;;;;9.12;94.19;96700.50;5069784;28;20028;-82
2021/05/28 01:53:23;;;;;;;7.90;6.00;;;;;;;9.11;93.88;96702.31;5049146;28;20041;-82
2021/05/28 01:55:50;;;;;;;8.37;6.17;;;;;;;9.13;94.33;96694.31;5057180;28;20118;-82
2021/05/28 01:58:18;;;;;;;9.73;6.47;;;;;;;9.15;94.33;96701.09;5084524;28;20020;-82
2021/05/28 02:00:47;;;;;;;8.53;6.70;;;;;;;9.12;94.61;96700.50;5072934;28;20028;-82
2021/05/28 02:03:13;;;;;;;8.70;6.73;;;;;;;9.08;94.60;96704.38;5060869;28;20111;-82
2021/05/28 02:05:39;;;;;;;8.90;6.63;;;;;;;9.04;94.97;96703.00;5057459;28;20032;-82
2021/05/28 02:08:05;;;;;;;10.33;7.43;;;;;;;9.01;94.87;96709.34;5072075;28;20031;-82
2021/05/28 02:10:32;;;;;;;10.53;7.27;;;;;;;9.03;95.46;96702.19;5060321;28;20059;-82
2021/05/28 02:12:58;;;;;;;9.37;6.77;;;;;;;9.03;95.49;96702.19;5069522;28;20036;-82
2021/05/28 02:15:25;;;;;;;10.47;7.27;;;;;;;8.97;95.52;96707.97;5069005;28;20036;-82
2021/05/28 02:17:52;;;;;;;11.53;7.20;;;;;;;8.97;95.15;96707.97;5058293;28;20024;-83
2021/05/28 02:20:18;;;;;;;10.83;7.37;;;;;;;8.96;94.76;96696.66;5066330;28;20414;-82
2021/05/28 02:22:43;;;;;;;9.70;7.93;;;;;;;8.89;95.32;96700.81;5061661;28;20035;-81
2021/05/28 02:25:10;;;;;;;11.80;8.00;;;;;;;8.88;94.55;96698.28;5082440;28;20040;-82
2021/05/28 02:27:36;;;;;;;10.87;8.07;;;;;;;8.92;95.19;96710.16;5076384;28;20039;-81
2021/05/28 02:30:03;;;;;;;9.87;7.70;;;;;;;8.95;95.43;96705.50;5071674;28;20041;-81
2021/05/28 02:32:29;;;;;;;10.50;8.00;;;;;;;8.98;95.53;96704.38;5060602;28;20477;-81
2021/05/28 02:34:55;;;;;;;13.93;8.30;;;;;;;8.92;95.39;96711.03;5056774;28;20039;-81
2021/05/28 02:37:21;;;;;;;13.67;8.73;;;;;;;8.89;95.34;96705.22;5066633;28;20456;-81
2021/05/28 02:39:46;;;;;;;11.07;8.03;;;;;;;8.85;95.21;96711.69;5101734;28;20040;-80
2021/05/28 02:42:12;;;;;;;9.30;7.40;;;;;;;8.80;96.11;96711.28;5066251;28;20024;-81
2021/05/28 02:44:39;;;;;;;9.30;7.13;;;;;;;8.72;96.89;96712.78;5081316;28;20027;-81
2021/05/28 02:47:05;;;;;;;13.07;8.60;;;;;;;8.72;97.53;96715.41;5080904;28;20020;-82
2021/05/28 02:49:44;;;;;;;7.97;6.53;;;;;;;8.82;97.84;96714.56;5061079;28;20040;-81
2021/05/28 02:52:09;;;;;;;8.67;6.63;;;;;;;8.74;98.28;96710.84;5072901;28;20031;-81
2021/05/28 02:54:35;;;;;;;9.53;7.87;;;;;;;8.59;97.87;96701.72;5083829;28;20019;-79
2021/05/28 02:57:00;;;;;;;12.20;8.57;;;;;;;8.70;97.98;96696.34;5059448;28;20033;-81
2021/05/28 02:59:26;;;;;;;12.33;8.87;;;;;;;8.65;97.65;96695.94;5061807;28;20492;-81
2021/05/28 03:01:52;;;;;;;11.93;9.50;;;;;;;8.66;97.57;96702.84;5085660;28;20118;-81
2021/05/28 03:04:18;;;;;;;11.57;9.40;;;;;;;8.61;97.27;96707.66;5058164;28;20419;-81
2021/05/28 03:06:43;;;;;;;13.00;8.60;;;;;;;8.66;97.93;96708.09;5082242;28;20042;-81
2021/05/28 03:09:09;;;;;;;10.67;8.40;;;;;;;8.61;97.49;96702.41;5061012;28;20066;-81
2021/05/28 03:11:35;;;;;;;11.37;8.77;;;;;;;8.61;97.85;96706.81;5082498;28;20126;-81
2021/05/28 03:14:02;;;;;;;10.60;8.03;;;;;;;8.59;98.40;96709.59;5061291;28;20028;-81
2021/05/28 03:16:28;;;;;;;10.27;7.73;;;;;;;8.67;97.99;96712.34;5083397;28;20401;-80
2021/05/28 03:18:58;;;;;;;31.83;25.00;;;;;;;8.68;97.90;96719.25;5082369;28;20024;-81
2021/05/28 03:23:57;;;;;;;21.67;18.23;;;;;;;8.69;97.77;96723.53;5084599;28;20032;-81
2021/05/28 03:26:23;;;;;;;11.97;9.00;;;;;;;8.69;98.33;96710.44;5074763;28;20016;-81
2021/05/28 03:28:50;;;;;;;12.93;8.63;;;;;;;8.74;98.23;96717.88;5063564;28;20389;-80
2021/05/28 03:31:17;;;;;;;12.03;8.87;;;;;;;8.72;97.93;96725.91;5058155;28;20264;-81
2021/05/28 03:33:43;;;;;;;10.53;8.57;;;;;;;8.62;97.56;96714.56;5068568;28;20992;-80
2021/05/28 03:36:09;;;;;;;11.60;8.73;;;;;;;8.63;97.69;96716.22;5074745;28;20024;-80
2021/05/28 03:38:35;;;;;;;13.77;8.90;;;;;;;8.63;97.87;96718.84;5086417;28;20032;-80
2021/05/28 03:41:02;;;;;;;14.77;9.63;;;;;;;8.67;97.71;96719.41;5067184;28;20020;-80
2021/05/28 03:43:27;;;;;;;12.33;9.63;;;;;;;8.67;98.12;96722.84;5081403;28;20038;-81
2021/05/28 03:45:54;;;;;;;11.13;8.87;;;;;;;8.61;97.73;96720.75;5070194;28;20020;-80
2021/05/28 03:48:20;;;;;;;11.23;8.40;;;;;;;8.59;97.81;96727.94;5056881;28;20122;-81
2021/05/28 03:50:46;;;;;;;12.67;8.63;;;;;;;8.64;97.84;96730.16;5074918;28;20811;-80
2021/05/28 03:53:12;;;;;;;13.73;8.87;;;;;;;8.66;97.66;96730.84;5067307;28;20074;-81
2021/05/28 03:55:38;;;;;;;10.03;7.93;;;;;;;8.68;98.12;96728.91;5059372;28;20112;-80
2021/05/28 03:58:03;;;;;;;10.67;8.23;;;;;;;8.74;98.20;96739.69;5058957;28;20085;-81
2021/05/28 04:00:29;;;;;;;11.37;8.13;;;;;;;8.77;97.74;96738.59;5062606;28;20024;-81
2021/05/28 04:02:55;;;;;;;12.00;8.83;;;;;;;8.72;97.51;96743.44;5062343;28;20074;-81
2021/05/28 04:05:21;;;;;;;13.10;9.00;;;;;;;8.74;97.63;96744.94;5060048;28;20056;-80
2021/05/28 04:07:47;;;;;;;16.23;9.60;;;;;;;8.82;97.83;96746.91;5075548;28;20044;-80
2021/05/28 04:10:13;;;;;;;12.53;7.47;;;;;;;8.65;97.92;96735.28;5065824;28;20036;-81
2021/05/28 04:12:39;;;;;;;13.23;9.50;;;;;;;8.60;97.80;96726.97;5063327;28;20024;-80
2021/05/28 04:15:07;;;;;;;12.50;9.03;;;;;;;8.64;97.67;96725.72;5064901;28;20035;-80
2021/05/28 04:17:33;;;;;;;12.17;9.10;;;;;;;8.58;97.23;96726.25;5071360;28;20032;-80
2021/05/28 04:19:58;;;;;;;11.27;9.03;;;;;;;8.60;97.15;96726.97;5080850;28;20024;-80
2021/05/28 04:22:25;;;;;;;12.30;8.80;;;;;;;8.68;96.88;96724.50;5071907;28;20028;-80
2021/05/28 04:24:50;;;;;;;12.67;9.40;;;;;;;8.69;96.94;96728.78;5058525;28;20020;-79
2021/05/28 04:27:16;;;;;;;11.67;9.23;;;;;;;8.80;96.97;96724.38;5077343;28;20039;-80
2021/05/28 04:29:42;;;;;;;11.17;8.37;;;;;;;8.77;97.33;96728.09;5068905;28;20031;-80
2021/05/28 04:32:09;;;;;;;10.53;8.03;;;;;;;8.70;97.83;96722.56;5071635;28;20058;-79
2021/05/28 04:34:35;;;;;;;10.17;7.93;;;;;;;8.79;98.15;96730.59;5073302;28;20201;-81
2021/05/28 04:37:01;;;;;;;11.57;8.73;;;;;;;8.90;98.29;96725.22;5078775;28;20127;-81
2021/05/28 04:39:27;;;;;;;12.20;8.97;;;;;;;8.94;97.69;96729.22;5056536;28;20108;-81
2021/05/28 04:41:56;;;;;;;10.00;8.27;;;;;;;8.94;97.87;96739.72;5056538;28;20023;-81
2021/05/28 04:44:22;;;;;;;18.47;14.43;;;;;;;8.94;97.45;96739.72;5074070;28;20058;-81
2021/05/28 04:46:48;;;;;;;18.90;15.50;;;;;;;8.91;97.59;96732.13;5073822;28;20056;-80
2021/05/28 04:49:13;;;;;;;14.77;10.30;;;;;;;8.88;97.66;96741.09;5054159;28;20024;-81
2021/05/28 04:51:39;;;;;;;11.67;8.53;;;;;;;8.93;98.10;96748.56;5075698;28;20474;-81
2021/05/28 04:54:05;;;;;;;14.73;8.87;;;;;;;8.88;97.61;96741.09;5067351;28;20630;-81
2021/05/28 04:56:32;;;;;;;12.90;9.37;;;;;;;8.98;97.55;96733.22;5062220;28;20035;-81
2021/05/28 04:58:57;;;;;;;11.07;8.70;;;;;;;8.88;97.05;96746.31;5072100;28;20040;-81
2021/05/28 05:01:24;;;;;;;11.60;8.80;;;;;;;8.98;96.94;96743.72;5058717;28;20123;-83
2021/05/28 05:03:49;;;;;;;10.20;7.90;;;;;;;9.11;96.78;96748.72;5081142;28;20139;-80
2021/05/28 05:06:15;;;;;;;10.57;7.73;;;;;;;9.23;96.69;96750.25;5072104;28;20043;-81
2021/05/28 05:08:41;;;;;;;10.17;7.13;;;;;;;9.17;95.61;96756.84;5059825;28;20110;-81
2021/05/28 05:11:07;;;;;;;9.27;7.47;;;;;;;9.20;94.14;96756.59;5053998;28;20493;-81
2021/05/28 05:13:33;;;;;;;8.80;6.83;;;;;;;9.21;93.84;96757.41;5056009;28;20032;-81
2021/05/28 05:15:59;;;;;;;12.90;7.77;;;;;;;9.25;94.28;96752.72;5063375;28;20043;-81
2021/05/28 05:18:25;;;;;;;11.83;8.20;;;;;;;9.13;93.57;96762.53;5066806;28;20023;-81
2021/05/28 05:20:51;;;;;;;11.33;8.40;;;;;;;9.24;94.02;96758.94;5080946;28;20032;-80
2021/05/28 05:23:18;;;;;;;11.50;8.20;;;;;;;9.43;93.33;96766.81;5059457;28;20039;-81
2021/05/28 05:25:44;;;;;;;10.13;7.97;;;;;;;9.56;92.08;96763.91;5055328;28;20051;-81
2021/05/28 05:28:10;;;;;;;11.17;8.90;;;;;;;9.51;92.19;96759.06;5071505;28;20376;-81
2021/05/28 05:30:35;;;;;;;11.00;8.60;;;;;;;9.56;92.45;96770.00;5061567;28;20123;-81
2021/05/28 05:33:01;;;;;;;12.43;8.90;;;;;;;9.51;92.10;96771.38;5065157;28;20011;-82
2021/05/28 05:35:27;;;;;;;12.70;8.27;;;;;;;9.28;92.98;96769.00;5051467;28;20115;-81
2021/05/28 05:37:53;;;;;;;10.43;7.60;;;;;;;9.43;93.22;96774.69;5060226;28;20025;-81
2021/05/28 05:40:19;;;;;;;12.43;8.50;;;;;;;9.47;92.30;96772.63;5057752;28;20711;-81
2021/05/28 05:42:45;;;;;;;11.10;8.40;;;;;;;9.45;91.50;96773.56;5076861;28;20389;-81
2021/05/28 05:45:13;;;;;;;13.17;9.17;;;;;;;9.54;91.89;96764.03;5056735;28;20039;-81
2021/05/28 05:47:41;;;;;;;11.30;8.20;;;;;;;9.52;92.03;96770.38;5062593;28;20023;-81
2021/05/28 05:50:08;;;;;;;10.60;7.60;;;;;;;9.52;92.00;96773.00;5077909;28;20032;-80
2021/05/28 05:52:34;;;;;;;10.30;7.37;;;;;;;9.34;91.16;96778.13;5070158;28;20405;-81
2021/05/28 05:54:59;;;;;;;10.13;7.20;;;;;;;9.54;91.52;96782.41;5079357;28;20085;-81
2021/05/28 05:57:25;;;;;;;12.77;7.73;;;;;;;9.44;91.63;96784.22;5096384;28;20088;-81
2021/05/28 05:59:51;;;;;;;16.97;9.03;;;;;;;9.37;91.61;96772.63;5098964;28;20052;-81
2021/05/28 06:02:17;;;;;;;9.80;7.80;;;;;;;9.53;92.11;96770.25;5086185;28;20109;-81
2021/05/28 06:04:43;;;;;;;11.27;9.20;;;;;;;9.44;91.62;96777.16;5078164;28;20035;-81
2021/05/28 06:07:09;;;;;;;11.70;8.63;;;;;;;9.67;91.16;96775.06;5067584;28;20035;-81
2021/05/28 06:09:34;;;;;;;16.50;8.83;;;;;;;9.82;90.61;96779.88;5058182;28;20536;-81
2021/05/28 06:12:00;;;;;;;15.77;8.20;;;;;;;9.89;90.48;96778.34;5060812;28;20017;-81
2021/05/28 06:14:26;;;;;;;12.77;9.00;;;;;;;10.30;90.35;96781.59;5067675;28;20623;-82
2021/05/28 06:16:53;;;;;;;13.23;9.53;;;;;;;10.36;88.92;96783.63;5060464;28;20036;-81
2021/05/28 06:19:26;;;;;;;10.83;8.70;;;;;;;10.34;88.02;96783.78;5077361;28;20031;-81
2021/05/28 06:21:52;;;;;;;12.52;8.57;;;;;;;10.68;87.32;96787.66;5071010;28;20036;-81
2021/05/28 06:24:18;;;;;;;11.27;8.57;;;;;;;10.64;87.51;96781.06;5065434;28;20083;-81
2021/05/28 06:26:44;;;;;;;12.30;8.53;;;;;;;10.43;85.96;96782.13;5056728;28;20383;-81
2021/05/28 06:29:11;;;;;;;12.13;8.70;;;;;;;10.70;86.74;96778.66;5057436;28;20039;-81
2021/05/28 06:31:36;;;;;;;13.37;9.43;;;;;;;10.93;83.81;96781.72;5067817;28;20100;-82
2021/05/28 06:34:03;;;;;;;15.47;9.17;;;;;;;11.35;82.69;96786.41;5096116;28;20031;-81
2021/05/28 06:36:29;;;;;;;12.70;8.50;;;;;;;11.72;80.51;96774.88;5052229;28;20436;-81
2021/05/28 06:38:55;;;;;;;11.07;8.03;;;;;;;12.74;77.09;96779.44;5064358;28;20031;-81
2021/05/28 06:41:21;;;;;;;13.13;8.60;;;;;;;12.92;76.18;96780.16;5066672;28;20028;-81
2021/05/28 06:43:48;;;;;;;11.13;7.47;;;;;;;13.28;73.86;96782.59;5066176;28;20043;-80
2021/05/28 06:46:14;;;;;;;10.50;7.00;;;;;;;12.87;72.83;96786.91;5088552;28;20114;-80
2021/05/28 06:48:40;;;;;;;11.80;7.63;;;;;;;12.98;73.02;96784.81;5083939;28;20130;-80
2021/05/28 06:51:06;;;;;;;11.00;7.33;;;;;;;12.40;74.15;96790.00;5094327;28;20369;-80
2021/05/28 06:53:32;;;;;;;10.50;7.50;;;;;;;12.42;75.34;96788.88;5076109;28;20031;-80
2021/05/28 06:56:00;;;;;;;10.60;7.20;;;;;;;12.60;76.36;96801.16;5066814;28;20036;-80
2021/05/28 06:58:25;;;;;;;10.43;7.13;;;;;;;12.57;75.24;96802.28;5079453;28;20032;-81
2021/05/28 07:00:51;;;;;;;10.97;7.83;;;;;;;12.33;75.68;96795.06;5064442;28;20020;-81
2021/05/28 07:03:36;;;;;;;9.80;7.00;;;;;;;12.10;76.46;96799.22;5065722;28;20016;-81
2021/05/28 07:06:02;;;;;;;9.60;6.93;;;;;;;12.42;75.66;96795.94;5070267;28;20039;-80
2021/05/28 07:08:27;;;;;;;10.33;6.90;;;;;;;12.04;76.37;96803.31;5064625;28;20051;-81
2021/05/28 07:10:53;;;;;;;11.43;7.27;;;;;;;11.53;75.52;96813.56;5068850;28;20043;-81
2021/05/28 07:13:19;;;;;;;9.97;6.83;;;;;;;11.74;76.56;96809.81;5083466;28;20384;-81
2021/05/28 07:15:44;;;;;;;9.07;5.73;;;;;;;12.50;74.04;96804.72;5074852;28;20063;-82
2021/05/28 07:18:10;;;;;;;11.03;7.13;;;;;;;12.36;74.08;96796.56;5078761;28;20401;-81
2021/05/28 07:20:36;;;;;;;9.57;7.20;;;;;;;13.14;72.06;96794.56;5052225;28;20031;-81
2021/05/28 07:23:02;;;;;;;12.83;7.17;;;;;;;13.07;72.92;96790.91;5058639;28;20039;-81
2021/05/28 07:25:28;;;;;;;10.53;7.00;;;;;;;13.68;68.80;96787.09;5067582;28;20764;-82
2021/05/28 07:27:53;;;;;;;11.57;7.50;;;;;;;13.79;68.72;96793.03;5065112;28;20461;-81
2021/05/28 07:30:20;;;;;;;8.30;6.10;;;;;;;14.29;67.79;96794.66;5067584;28;20037;-81
2021/05/28 07:32:45;;;;;;;9.17;6.37;;;;;;;13.97;67.01;96798.16;5075199;28;20032;-81
2021/05/28 07:35:11;;;;;;;9.30;6.80;;;;;;;14.01;67.01;96804.75;5081093;28;20481;-81
2021/05/28 07:37:37;;;;;;;10.67;6.43;;;;;;;14.10;67.30;96804.56;5061395;28;20062;-81
2021/05/28 07:40:05;;;;;;;8.83;5.93;;;;;;;14.55;65.45;96800.56;5072434;28;20036;-81
2021/05/28 07:42:31;;;;;;;11.03;6.53;;;;;;;14.12;67.18;96807.06;5055180;28;20119;-80
2021/05/28 07:44:57;;;;;;;11.87;6.23;;;;;;;14.43;65.80;96811.66;5057930;28;20709;-81
2021/05/28 07:47:22;;;;;;;9.60;6.07;;;;;;;14.67;64.41;96808.13;5063747;28;20029;-81
2021/05/28 07:49:48;;;;;;;9.60;6.23;;;;;;;14.53;63.92;96807.84;5064137;28;20040;-80
2021/05/28 07:52:14;;;;;;;7.50;5.43;;;;;;;14.41;64.58;96814.44;5102440;28;20023;-81
2021/05/28 07:54:40;;;;;;;7.20;4.47;;;;;;;14.29;63.70;96821.91;5065553;28;20592;-81
2021/05/28 07:57:08;;;;;;;11.40;4.70;;;;;;;14.23;63.54;96817.28;5076236;28;20027;-81
2021/05/28 07:59:34;;;;;;;11.23;5.83;;;;;;;14.51;62.69;96815.09;5063609;28;20032;-81
2021/05/28 08:01:59;;;;;;;10.87;4.83;;;;;;;14.77;61.29;96809.56;5065413;28;20143;-81
2021/05/28 08:04:25;;;;;;;8.03;4.30;;;;;;;15.28;61.54;96804.69;5060568;28;20024;-82
2021/05/28 08:06:51;;;;;;;9.52;5.35;;;;;;;14.88;61.61;96804.91;5066135;28;20092;-82
2021/05/28 08:09:17;;;;;;;8.55;4.85;;;;;;;15.12;62.04;96801.31;5057024;28;20041;-82
2021/05/28 08:11:43;;;;;;;7.78;4.70;;;;;;;16.02;56.41;96798.88;5081415;28;20027;-82
2021/05/28 08:14:09;;;;;;;7.25;4.20;;;;;;;16.50;56.78;96796.78;5061087;28;20108;-82
2021/05/28 08:16:35;;;;;;;8.55;3.88;;;;;;;17.50;53.44;96801.50;5076969;28;20051;-82
2021/05/28 08:19:00;;;;;;;8.48;4.18;;;;;;;16.85;55.77;96805.84;5068027;28;20425;-81
2021/05/28 08:21:26;;;;;;;5.85;3.60;;;;;;;16.68;56.30;96801.72;5073538;28;20035;-81
2021/05/28 08:23:52;;;;;;;8.32;4.40;;;;;;;17.50;54.58;96803.31;5072716;28;20032;-82
2021/05/28 08:26:18;;;;;;;7.47;4.18;;;;;;;17.48;53.77;96810.69;5063969;28;20111;-82
2021/05/28 08:28:43;;;;;;;5.88;3.70;;;;;;;16.87;54.38;96809.16;5056788;28;20119;-82
2021/05/28 08:31:10;;;;;;;7.10;3.65;;;;;;;16.09;55.85;96814.91;5077796;28;20035;-82
2021/05/28 08:33:38;;;;;;;7.15;4.22;;;;;;;16.35;57.27;96817.16;5061509;28;20532;-82
2021/05/28 08:36:04;;;;;;;6.60;4.13;;;;;;;15.83;58.19;96809.97;5064763;28;20039;-82
2021/05/28 08:38:30;;;;;;;7.07;4.32;;;;;;;15.25;60.60;96817.47;5064542;28;20032;-82
2021/05/28 08:40:56;;;;;;;6.00;3.63;;;;;;;14.76;61.29;96813.22;5057782;28;20020;-82
2021/05/28 08:43:21;;;;;;;8.20;4.05;;;;;;;15.31;59.51;96822.06;5058676;28;20023;-82
2021/05/28 08:45:48;;;;;;;7.40;3.58;;;;;;;15.12;58.53;96818.03;5059730;28;20398;-82
2021/05/28 08:48:16;;;;;;;6.28;3.67;;;;;;;14.66;60.56;96814.44;5054807;28;20042;-82
2021/05/28 08:50:44;;;;;;;7.20;3.90;;;;;;;15.03;60.60;96808.47;5057875;28;20020;-82
2021/05/28 08:53:11;;;;;;;6.72;4.18;;;;;;;15.21;59.99;96811.69;5062753;28;20056;-82
2021/05/28 08:55:39;;;;;;;6.70;3.55;;;;;;;14.97;61.30;96817.94;5079371;28;20028;-82
2021/05/28 08:58:07;;;;;;;7.82;4.88;;;;;;;14.75;61.21;96806.25;5081815;28;20031;-82
2021/05/28 09:00:34;;;;;;;8.65;4.45;;;;;;;14.51;61.20;96819.59;5060704;28;20023;-82
2021/05/28 09:03:18;;;;;;;6.55;4.38;;;;;;;14.30;61.38;96812.16;5066911;28;20183;-82
2021/05/28 09:05:46;;;;;;;6.97;4.10;;;;;;;14.73;60.70;96808.28;5055003;28;20039;-82
2021/05/28 09:08:12;;;;;;;7.20;4.43;;;;;;;14.80;60.42;96809.22;5061947;28;20469;-82
2021/05/28 09:10:42;;;;;;;7.07;4.57;;;;;;;14.72;60.13;96805.78;5061412;28;20047;-81
2021/05/28 09:13:13;;;;;;;6.30;3.83;;;;;;;14.61;55.98;96810.44;5082247;28;20026;-82
2021/05/28 09:15:42;;;;;;;6.60;4.55;;;;;;;14.70;56.12;96811.25;5071894;28;20126;-82
2021/05/28 09:18:08;;;;;;;7.32;4.43;;;;;;;14.53;56.58;96814.97;5076309;28;20469;-82
2021/05/28 09:20:34;;;;;;;7.38;4.32;;;;;;;14.82;56.03;96811.69;5059956;28;20028;-82
2021/05/28 09:23:12;;;;;;;9.10;5.90;;;;;;;14.94;55.40;96806.88;5064417;28;20024;-82
2021/05/28 09:26:02;;;;;;;12.68;7.90;;;;;;;14.52;57.76;96810.63;5078444;28;20072;-82
2021/05/28 09:28:37;;;;;;;7.78;4.43;;;;;;;14.18;59.48;96811.66;5060489;28;20055;-75
2021/05/28 09:31:07;;;;;;;6.63;4.40;;;;;;;13.82;61.17;96805.94;5090645;28;20028;-75
2021/05/28 09:33:41;;;;;;;7.82;5.38;;;;;;;13.96;61.01;96815.00;5074936;28;20048;-75
2021/05/28 09:36:16;;;;;;;12.23;6.50;;;;;;;13.74;61.97;96809.38;5091435;28;20119;-75
2021/05/28 09:38:59;;;;;;;12.60;8.82;;;;;;;13.62;60.77;96811.53;5060111;28;20040;-75
2021/05/28 09:41:49;;;;;;;13.87;9.97;;;;;;;13.98;60.44;96813.00;5060065;28;20031;-75
2021/05/28 09:44:15;;;;;;;9.60;5.43;;;;;;;14.18;58.96;96813.50;5068091;28;20031;-75
2021/05/28 09:47:19;;;;;;;6.85;4.30;;;;;;;14.18;58.63;96811.66;5075244;28;20382;-75
2021/05/28 09:49:49;;;;;;;;;;;;;;;14.37;56.85;96813.13;5063586;28;20066;-75
2021/05/28 09:52:28;;;;;;;7.45;4.65;;;;;;;14.36;56.69;96809.66;5078462;28;19911;-76
2021/05/28 09:55:07;;;;;;;5.55;3.17;;;;;;;14.68;55.53;96815.06;5088768;28;20031;-75
2021/05/28 09:57:41;;;;;;;8.35;3.92;;;;;;;14.52;54.81;96821.22;5079953;28;20035;-75
2021/05/28 10:00:31;;;;;;;7.70;4.57;;;;;;;14.78;54.58;96810.41;5053026;28;20035;-76
2021/05/28 10:03:23;;;;;;;8.23;6.30;;;;;;;14.90;56.72;96813.50;5054548;28;20078;-75
2021/05/28 10:05:57;;;;;;;7.93;4.07;;;;;;;15.32;54.74;96810.47;5071905;28;20344;-75
2021/05/28 10:08:25;;;;;;;7.55;5.40;;;;;;;15.00;53.29;96814.13;5053989;28;20024;-75
2021/05/28 10:10:52;;;;;;;7.47;4.90;;;;;;;15.03;55.25;96811.97;5076063;28;20028;-75
2021/05/28 10:13:20;;;;;;;7.40;4.88;;;;;;;15.37;55.34;96810.78;5057779;28;20091;-75
2021/05/28 10:16:05;;;;;;;8.77;5.55;;;;;;;15.38;54.58;96808.94;5074925;28;20051;-75
2021/05/28 10:18:31;;;;;;;8.75;5.38;;;;;;;15.24;56.20;96811.34;5098584;28;20284;-75
2021/05/28 10:20:57;;;;;;;9.93;6.85;;;;;;;15.25;55.55;96806.88;5059949;28;20028;-75
2021/05/28 10:23:23;;;;;;;12.30;7.63;;;;;;;14.79;55.01;96810.25;5070642;28;20038;-75
2021/05/28 10:25:55;;;;;;;8.43;7.07;;;;;;;14.57;56.31;96805.69;5051275;28;20118;-75
2021/05/28 10:28:22;;;;;;;8.70;6.93;;;;;;;14.54;57.35;96817.41;5080454;28;20031;-75
2021/05/28 10:30:51;;;;;;;8.60;5.70;;;;;;;14.72;56.95;96817.22;5049020;28;20035;-74
2021/05/28 10:33:25;;;;;;;8.73;5.57;;;;;;;14.82;56.44;96807.25;5048701;28;20069;-75
2021/05/28 10:36:05;;;;;;;8.65;6.38;;;;;;;14.77;57.11;96801.63;5055218;28;20136;-75
2021/05/28 10:38:38;;;;;;;8.50;6.45;;;;;;;14.78;58.62;96803.28;5051682;28;20110;-75
2021/05/28 10:41:07;;;;;;;13.13;9.75;;;;;;;14.69;58.50;96799.03;5071715;28;20023;-75
2021/05/28 10:43:57;;;;;;;9.93;7.23;;;;;;;14.20;58.85;96812.34;5059225;28;20080;-74
2021/05/28 10:46:23;;;;;;;10.77;7.55;;;;;;;14.39;57.97;96805.88;5058805;28;20032;-75
2021/05/28 10:48:59;;;;;;;8.75;6.45;;;;;;;14.87;57.13;96797.97;5092433;28;20482;-75
2021/05/28 10:51:27;;;;;;;10.83;6.00;;;;;;;14.73;56.70;96797.69;5063378;28;21420;-76
2021/05/28 10:53:53;;;;;;;8.75;6.10;;;;;;;14.81;56.42;96810.06;5069236;28;20031;-75
2021/05/28 10:56:37;;;;;;;10.30;5.82;;;;;;;14.98;55.49;96801.03;5064809;28;20033;-75
2021/05/28 10:59:17;;;;;;;8.13;5.53;;;;;;;14.96;55.58;96804.88;5059023;28;20477;-76
2021/05/28 11:01:47;;;;;;;7.18;5.50;;;;;;;15.66;54.91;96796.88;5075120;28;20023;-76
2021/05/28 11:04:17;;;;;;;8.27;5.75;;;;;;;15.46;54.22;96804.44;5056209;28;20067;-75
2021/05/28 11:06:59;;;;;;;7.28;4.68;;;;;;;16.04;52.02;96794.22;5057173;28;20055;-75
2021/05/28 11:09:36;;;;;;;8.70;4.75;;;;;;;15.23;51.58;96799.09;5076812;28;20090;-75
2021/05/28 11:12:09;;;;;;;8.30;3.90;;;;;;;16.03;50.05;96795.25;5065487;28;20028;-76
2021/05/28 11:14:37;;;;;;;6.82;3.90;;;;;;;16.54;49.21;96792.75;5066417;28;20044;-75
2021/05/28 11:17:07;;;;;;;7.75;3.80;;;;;;;16.06;48.00;96794.84;5079676;28;20035;-75
2021/05/28 11:19:40;;;;;;;9.95;4.35;;;;;;;16.22;48.54;96786.75;5086845;28;20952;-75
2021/05/28 11:22:24;;;;;;;6.93;3.47;;;;;;;16.20;49.85;96790.63;5063927;28;20039;-75
2021/05/28 11:24:53;;;;;;;6.20;2.95;;;;;;;16.52;49.49;96784.13;5095209;28;20035;-75
2021/05/28 11:27:26;;;;;;;14.02;8.55;;;;;;;16.76;48.55;96779.56;5065708;28;20459;-75
2021/05/28 11:30:03;;;;;;;9.57;5.00;;;;;;;16.45;50.00;96777.91;5082171;28;20043;-75
2021/05/28 11:32:44;;;;;;;5.72;3.92;;;;;;;16.68;47.46;96775.16;5066027;28;20529;-76
2021/05/28 11:35:13;;;;;;;5.72;3.78;;;;;;;16.75;45.63;96773.44;5053364;28;20039;-77
2021/05/28 11:37:49;;;;;;;10.32;5.22;;;;;;;16.53;48.19;96774.31;5076434;28;20076;-76
2021/05/28 11:40:23;;;;;;;8.88;4.47;;;;;;;16.57;48.90;96775.63;5091919;28;20024;-75